sensor_id;sensor_type;location;lat;lon;timestamp;P1;durP1;ratioP1;P2;durP2;ratioP2
52412;SDS011;38339;53.234;6.578;2022-09-30T00:01:16;9.50;;;6.90;;
52412;SDS011;38339;53.234;6.578;2022-09-30T00:03:42;9.85;;;6.50;;
52412;SDS011;38339;53.234;6.578;2022-09-30T00:06:08;8.70;;;6.50;;
52412;SDS011;38339;53.234;6.578;2022-09-30T00:08:36;9.15;;;7.30;;
52412;SDS011;38339;53.234;6.578;2022-09-30T00:11:06;11.00;;;7.05;;
52412;SDS011;38339;53.234;6.578;2022-09-30T00:13:36;12.52;;;7.30;;
52412;SDS011;38339;53.234;6.578;2022-09-30T00:16:03;12.18;;;8.07;;
52412;SDS011;38339;53.234;6.578;2022-09-30T00:18:29;10.63;;;7.25;;
52412;SDS011;38339;53.234;6.578;2022-09-30T00:20:55;9.18;;;7.10;;
52412;SDS011;38339;53.234;6.578;2022-09-30T00:23:21;10.45;;;6.75;;
52412;SDS011;38339;53.234;6.578;2022-09-30T00:25:48;9.55;;;7.40;;
52412;SDS011;38339;53.234;6.578;2022-09-30T00:28:15;9.05;;;7.10;;
52412;SDS011;38339;53.234;6.578;2022-09-30T00:30:41;11.93;;;6.70;;
52412;SDS011;38339;53.234;6.578;2022-09-30T00:33:07;9.38;;;6.63;;
52412;SDS011;38339;53.234;6.578;2022-09-30T00:35:33;13.88;;;7.07;;
52412;SDS011;38339;53.234;6.578;2022-09-30T00:37:58;8.50;;;6.78;;
52412;SDS011;38339;53.234;6.578;2022-09-30T00:40:24;8.52;;;7.47;;
52412;SDS011;38339;53.234;6.578;2022-09-30T00:42:51;10.43;;;7.30;;
52412;SDS011;38339;53.234;6.578;2022-09-30T00:45:17;8.85;;;7.07;;
52412;SDS011;38339;53.234;6.578;2022-09-30T00:50:37;10.07;;;7.80;;
52412;SDS011;38339;53.234;6.578;2022-09-30T00:58:24;9.45;;;7.57;;
52412;SDS011;38339;53.234;6.578;2022-09-30T01:00:53;10.02;;;7.50;;
52412;SDS011;38339;53.234;6.578;2022-09-30T01:03:20;10.30;;;7.85;;
52412;SDS011;38339;53.234;6.578;2022-09-30T01:05:47;8.70;;;7.38;;
52412;SDS011;38339;53.234;6.578;2022-09-30T01:08:14;11.40;;;7.60;;
52412;SDS011;38339;53.234;6.578;2022-09-30T01:10:43;10.20;;;7.22;;
52412;SDS011;38339;53.234;6.578;2022-09-30T01:13:09;9.55;;;7.20;;
52412;SDS011;38339;53.234;6.578;2022-09-30T01:15:47;9.18;;;7.55;;
52412;SDS011;38339;53.234;6.578;2022-09-30T01:18:26;11.00;;;7.50;;
52412;SDS011;38339;53.234;6.578;2022-09-30T01:32:27;8.23;;;7.35;;
52412;SDS011;38339;53.234;6.578;2022-09-30T01:35:29;9.63;;;8.00;;
52412;SDS011;38339;53.234;6.578;2022-09-30T01:51:30;10.77;;;7.75;;
52412;SDS011;38339;53.234;6.578;2022-09-30T01:54:29;8.57;;;7.43;;
52412;SDS011;38339;53.234;6.578;2022-09-30T01:57:32;11.63;;;8.38;;
52412;SDS011;38339;53.234;6.578;2022-09-30T02:00:09;11.35;;;8.30;;
52412;SDS011;38339;53.234;6.578;2022-09-30T02:05:22;10.88;;;8.75;;
52412;SDS011;38339;53.234;6.578;2022-09-30T02:07:53;9.48;;;8.45;;
52412;SDS011;38339;53.234;6.578;2022-09-30T02:10:26;10.82;;;7.70;;
52412;SDS011;38339;53.234;6.578;2022-09-30T02:13:19;10.27;;;7.70;;
52412;SDS011;38339;53.234;6.578;2022-09-30T02:15:56;11.20;;;7.95;;
52412;SDS011;38339;53.234;6.578;2022-09-30T02:18:45;10.48;;;7.68;;
52412;SDS011;38339;53.234;6.578;2022-09-30T02:21:16;11.13;;;7.97;;
52412;SDS011;38339;53.234;6.578;2022-09-30T02:23:51;8.55;;;7.63;;
52412;SDS011;38339;53.234;6.578;2022-09-30T02:26:24;12.95;;;8.05;;
52412;SDS011;38339;53.234;6.578;2022-09-30T02:28:58;11.43;;;7.80;;
52412;SDS011;38339;53.234;6.578;2022-09-30T02:31:28;12.27;;;7.47;;
52412;SDS011;38339;53.234;6.578;2022-09-30T02:36:37;10.13;;;8.32;;
52412;SDS011;38339;53.234;6.578;2022-09-30T02:42:08;10.77;;;8.10;;
52412;SDS011;38339;53.234;6.578;2022-09-30T02:44:38;10.20;;;7.90;;
52412;SDS011;38339;53.234;6.578;2022-09-30T02:47:11;10.73;;;7.85;;
52412;SDS011;38339;53.234;6.578;2022-09-30T02:49:48;9.65;;;7.90;;
52412;SDS011;38339;53.234;6.578;2022-09-30T02:58:34;10.05;;;8.00;;
52412;SDS011;38339;53.234;6.578;2022-09-30T03:01:04;9.60;;;8.00;;
52412;SDS011;38339;53.234;6.578;2022-09-30T03:03:36;10.57;;;7.60;;
52412;SDS011;38339;53.234;6.578;2022-09-30T03:06:06;11.48;;;7.90;;
52412;SDS011;38339;53.234;6.578;2022-09-30T03:08:33;9.20;;;7.47;;
52412;SDS011;38339;53.234;6.578;2022-09-30T03:10:59;10.55;;;7.68;;
52412;SDS011;38339;53.234;6.578;2022-09-30T03:13:31;9.00;;;7.30;;
52412;SDS011;38339;53.234;6.578;2022-09-30T03:25:22;8.30;;;7.50;;
52412;SDS011;38339;53.234;6.578;2022-09-30T03:30:21;8.73;;;7.25;;
52412;SDS011;38339;53.234;6.578;2022-09-30T03:41:39;11.07;;;8.30;;
52412;SDS011;38339;53.234;6.578;2022-09-30T03:46:50;9.57;;;8.35;;
52412;SDS011;38339;53.234;6.578;2022-09-30T03:49:25;11.35;;;7.65;;
52412;SDS011;38339;53.234;6.578;2022-09-30T03:51:55;8.48;;;7.57;;
52412;SDS011;38339;53.234;6.578;2022-09-30T03:54:22;8.48;;;7.57;;
52412;SDS011;38339;53.234;6.578;2022-09-30T03:56:48;10.75;;;7.95;;
52412;SDS011;38339;53.234;6.578;2022-09-30T03:59:24;9.52;;;8.52;;
52412;SDS011;38339;53.234;6.578;2022-09-30T04:01:54;8.65;;;7.50;;
52412;SDS011;38339;53.234;6.578;2022-09-30T04:04:23;9.20;;;8.30;;
52412;SDS011;38339;53.234;6.578;2022-09-30T04:06:49;9.45;;;8.15;;
52412;SDS011;38339;53.234;6.578;2022-09-30T04:09:15;9.27;;;8.38;;
52412;SDS011;38339;53.234;6.578;2022-09-30T04:11:40;8.88;;;7.68;;
52412;SDS011;38339;53.234;6.578;2022-09-30T04:14:07;10.20;;;7.80;;
52412;SDS011;38339;53.234;6.578;2022-09-30T04:16:33;9.50;;;8.60;;
52412;SDS011;38339;53.234;6.578;2022-09-30T04:18:59;9.50;;;8.60;;
52412;SDS011;38339;53.234;6.578;2022-09-30T04:21:24;8.80;;;7.90;;
52412;SDS011;38339;53.234;6.578;2022-09-30T04:23:53;8.88;;;7.85;;
52412;SDS011;38339;53.234;6.578;2022-09-30T04:26:19;10.13;;;7.85;;
52412;SDS011;38339;53.234;6.578;2022-09-30T04:28:45;8.95;;;8.05;;
52412;SDS011;38339;53.234;6.578;2022-09-30T04:31:11;9.00;;;8.10;;
52412;SDS011;38339;53.234;6.578;2022-09-30T04:33:37;9.45;;;8.55;;
52412;SDS011;38339;53.234;6.578;2022-09-30T04:36:05;8.93;;;8.00;;
52412;SDS011;38339;53.234;6.578;2022-09-30T04:38:31;10.65;;;8.25;;
52412;SDS011;38339;53.234;6.578;2022-09-30T04:41:00;9.68;;;8.38;;
52412;SDS011;38339;53.234;6.578;2022-09-30T04:43:27;10.25;;;8.35;;
52412;SDS011;38339;53.234;6.578;2022-09-30T04:45:54;12.07;;;8.73;;
52412;SDS011;38339;53.234;6.578;2022-09-30T04:48:19;11.05;;;8.25;;
52412;SDS011;38339;53.234;6.578;2022-09-30T04:50:46;9.50;;;8.60;;
52412;SDS011;38339;53.234;6.578;2022-09-30T04:53:13;9.90;;;8.90;;
52412;SDS011;38339;53.234;6.578;2022-09-30T04:55:39;9.82;;;8.93;;
52412;SDS011;38339;53.234;6.578;2022-09-30T04:58:06;9.90;;;8.68;;
52412;SDS011;38339;53.234;6.578;2022-09-30T05:00:31;9.45;;;8.45;;
52412;SDS011;38339;53.234;6.578;2022-09-30T05:02:57;9.95;;;8.70;;
52412;SDS011;38339;53.234;6.578;2022-09-30T05:05:23;10.27;;;9.05;;
52412;SDS011;38339;53.234;6.578;2022-09-30T05:07:49;9.50;;;8.60;;
52412;SDS011;38339;53.234;6.578;2022-09-30T05:10:14;9.93;;;8.80;;
52412;SDS011;38339;53.234;6.578;2022-09-30T05:12:40;11.10;;;9.80;;
52412;SDS011;38339;53.234;6.578;2022-09-30T05:15:07;11.43;;;9.93;;
52412;SDS011;38339;53.234;6.578;2022-09-30T05:17:33;10.10;;;9.10;;
52412;SDS011;38339;53.234;6.578;2022-09-30T05:19:59;10.50;;;9.38;;
52412;SDS011;38339;53.234;6.578;2022-09-30T05:22:25;10.48;;;9.43;;
52412;SDS011;38339;53.234;6.578;2022-09-30T05:24:52;10.60;;;9.50;;
52412;SDS011;38339;53.234;6.578;2022-09-30T05:27:20;10.57;;;9.27;;
52412;SDS011;38339;53.234;6.578;2022-09-30T05:29:47;12.57;;;9.80;;
52412;SDS011;38339;53.234;6.578;2022-09-30T05:32:13;12.35;;;10.07;;
52412;SDS011;38339;53.234;6.578;2022-09-30T05:34:39;11.38;;;9.68;;
52412;SDS011;38339;53.234;6.578;2022-09-30T05:37:05;12.75;;;10.05;;
52412;SDS011;38339;53.234;6.578;2022-09-30T05:39:32;15.63;;;13.52;;
52412;SDS011;38339;53.234;6.578;2022-09-30T05:41:58;13.93;;;11.90;;
52412;SDS011;38339;53.234;6.578;2022-09-30T05:44:24;12.23;;;10.63;;
52412;SDS011;38339;53.234;6.578;2022-09-30T05:46:50;14.23;;;10.43;;
52412;SDS011;38339;53.234;6.578;2022-09-30T05:49:15;14.07;;;10.52;;
52412;SDS011;38339;53.234;6.578;2022-09-30T05:51:42;12.70;;;10.35;;
52412;SDS011;38339;53.234;6.578;2022-09-30T05:54:08;12.35;;;10.18;;
52412;SDS011;38339;53.234;6.578;2022-09-30T05:56:35;11.30;;;9.95;;
52412;SDS011;38339;53.234;6.578;2022-09-30T05:59:03;13.70;;;9.82;;
52412;SDS011;38339;53.234;6.578;2022-09-30T06:01:29;11.20;;;9.68;;
52412;SDS011;38339;53.234;6.578;2022-09-30T06:03:54;15.68;;;10.40;;
52412;SDS011;38339;53.234;6.578;2022-09-30T06:06:20;18.50;;;15.43;;
52412;SDS011;38339;53.234;6.578;2022-09-30T06:08:46;19.20;;;13.77;;
52412;SDS011;38339;53.234;6.578;2022-09-30T06:11:13;15.77;;;11.52;;
52412;SDS011;38339;53.234;6.578;2022-09-30T06:13:41;13.45;;;10.93;;
52412;SDS011;38339;53.234;6.578;2022-09-30T06:16:08;13.35;;;10.27;;
52412;SDS011;38339;53.234;6.578;2022-09-30T06:18:35;14.45;;;10.73;;
52412;SDS011;38339;53.234;6.578;2022-09-30T06:21:03;13.00;;;10.27;;
52412;SDS011;38339;53.234;6.578;2022-09-30T06:23:29;14.38;;;11.18;;
52412;SDS011;38339;53.234;6.578;2022-09-30T06:25:56;13.30;;;10.45;;
52412;SDS011;38339;53.234;6.578;2022-09-30T06:28:23;14.23;;;11.18;;
52412;SDS011;38339;53.234;6.578;2022-09-30T06:30:49;13.65;;;10.70;;
52412;SDS011;38339;53.234;6.578;2022-09-30T06:33:14;13.27;;;10.65;;
52412;SDS011;38339;53.234;6.578;2022-09-30T06:35:42;15.85;;;12.00;;
52412;SDS011;38339;53.234;6.578;2022-09-30T06:38:11;18.55;;;12.82;;
52412;SDS011;38339;53.234;6.578;2022-09-30T06:40:39;12.45;;;10.57;;
52412;SDS011;38339;53.234;6.578;2022-09-30T06:43:05;12.23;;;10.00;;
52412;SDS011;38339;53.234;6.578;2022-09-30T06:45:31;13.18;;;10.32;;
52412;SDS011;38339;53.234;6.578;2022-09-30T06:48:00;14.90;;;10.02;;
52412;SDS011;38339;53.234;6.578;2022-09-30T06:50:28;13.50;;;10.65;;
52412;SDS011;38339;53.234;6.578;2022-09-30T06:53:04;12.10;;;10.10;;
52412;SDS011;38339;53.234;6.578;2022-09-30T06:55:32;12.05;;;10.43;;
52412;SDS011;38339;53.234;6.578;2022-09-30T06:58:02;11.82;;;9.43;;
52412;SDS011;38339;53.234;6.578;2022-09-30T07:00:30;13.15;;;9.48;;
52412;SDS011;38339;53.234;6.578;2022-09-30T07:02:55;10.93;;;8.95;;
52412;SDS011;38339;53.234;6.578;2022-09-30T07:05:21;11.10;;;8.35;;
52412;SDS011;38339;53.234;6.578;2022-09-30T07:07:49;12.55;;;8.85;;
52412;SDS011;38339;53.234;6.578;2022-09-30T07:10:16;9.57;;;7.97;;
52412;SDS011;38339;53.234;6.578;2022-09-30T07:12:42;12.27;;;8.07;;
52412;SDS011;38339;53.234;6.578;2022-09-30T07:15:07;10.05;;;8.50;;
52412;SDS011;38339;53.234;6.578;2022-09-30T07:17:33;9.27;;;7.35;;
52412;SDS011;38339;53.234;6.578;2022-09-30T07:19:59;10.60;;;7.30;;
52412;SDS011;38339;53.234;6.578;2022-09-30T07:22:25;8.68;;;6.45;;
52412;SDS011;38339;53.234;6.578;2022-09-30T07:24:59;11.50;;;6.88;;
52412;SDS011;38339;53.234;6.578;2022-09-30T07:27:28;12.68;;;10.07;;
52412;SDS011;38339;53.234;6.578;2022-09-30T07:29:56;15.32;;;12.27;;
52412;SDS011;38339;53.234;6.578;2022-09-30T07:32:23;7.90;;;6.85;;
52412;SDS011;38339;53.234;6.578;2022-09-30T07:34:49;6.90;;;5.93;;
52412;SDS011;38339;53.234;6.578;2022-09-30T07:37:15;8.23;;;5.80;;
52412;SDS011;38339;53.234;6.578;2022-09-30T07:39:43;6.43;;;5.47;;
52412;SDS011;38339;53.234;6.578;2022-09-30T07:42:10;6.75;;;5.53;;
52412;SDS011;38339;53.234;6.578;2022-09-30T07:44:41;8.80;;;5.93;;
52412;SDS011;38339;53.234;6.578;2022-09-30T07:47:11;6.50;;;5.30;;
52412;SDS011;38339;53.234;6.578;2022-09-30T07:49:39;8.40;;;5.78;;
52412;SDS011;38339;53.234;6.578;2022-09-30T07:52:06;8.10;;;5.95;;
52412;SDS011;38339;53.234;6.578;2022-09-30T07:54:32;6.68;;;5.40;;
52412;SDS011;38339;53.234;6.578;2022-09-30T07:56:59;8.02;;;5.70;;
52412;SDS011;38339;53.234;6.578;2022-09-30T07:59:27;7.10;;;5.28;;
52412;SDS011;38339;53.234;6.578;2022-09-30T08:01:53;6.90;;;5.28;;
52412;SDS011;38339;53.234;6.578;2022-09-30T08:04:20;8.95;;;5.72;;
52412;SDS011;38339;53.234;6.578;2022-09-30T08:06:48;10.13;;;5.47;;
52412;SDS011;38339;53.234;6.578;2022-09-30T08:09:17;8.98;;;5.28;;
52412;SDS011;38339;53.234;6.578;2022-09-30T08:11:45;6.85;;;4.78;;
52412;SDS011;38339;53.234;6.578;2022-09-30T08:14:12;5.78;;;4.75;;
52412;SDS011;38339;53.234;6.578;2022-09-30T08:16:39;8.32;;;5.53;;
52412;SDS011;38339;53.234;6.578;2022-09-30T08:19:06;6.32;;;5.05;;
52412;SDS011;38339;53.234;6.578;2022-09-30T08:21:31;6.75;;;5.20;;
52412;SDS011;38339;53.234;6.578;2022-09-30T08:23:57;6.93;;;5.60;;
52412;SDS011;38339;53.234;6.578;2022-09-30T08:26:27;8.40;;;5.55;;
52412;SDS011;38339;53.234;6.578;2022-09-30T08:28:54;8.30;;;6.00;;
52412;SDS011;38339;53.234;6.578;2022-09-30T08:31:20;7.15;;;5.68;;
52412;SDS011;38339;53.234;6.578;2022-09-30T08:33:47;9.88;;;6.22;;
52412;SDS011;38339;53.234;6.578;2022-09-30T08:36:14;8.10;;;6.10;;
52412;SDS011;38339;53.234;6.578;2022-09-30T08:38:44;9.10;;;6.57;;
52412;SDS011;38339;53.234;6.578;2022-09-30T08:46:32;10.23;;;7.15;;
52412;SDS011;38339;53.234;6.578;2022-09-30T08:49:20;9.05;;;6.15;;
52412;SDS011;38339;53.234;6.578;2022-09-30T08:51:51;8.93;;;5.88;;
52412;SDS011;38339;53.234;6.578;2022-09-30T08:54:20;7.50;;;5.97;;
52412;SDS011;38339;53.234;6.578;2022-09-30T08:56:49;8.23;;;6.07;;
52412;SDS011;38339;53.234;6.578;2022-09-30T08:59:26;9.07;;;5.80;;
52412;SDS011;38339;53.234;6.578;2022-09-30T09:02:12;10.60;;;6.43;;
52412;SDS011;38339;53.234;6.578;2022-09-30T09:04:39;12.38;;;6.35;;
52412;SDS011;38339;53.234;6.578;2022-09-30T09:07:07;7.57;;;5.55;;
52412;SDS011;38339;53.234;6.578;2022-09-30T09:09:40;8.70;;;5.05;;
52412;SDS011;38339;53.234;6.578;2022-09-30T09:20:17;11.70;;;6.22;;
52412;SDS011;38339;53.234;6.578;2022-09-30T09:22:46;8.60;;;6.20;;
52412;SDS011;38339;53.234;6.578;2022-09-30T09:25:19;8.40;;;6.03;;
52412;SDS011;38339;53.234;6.578;2022-09-30T09:27:54;10.80;;;6.22;;
52412;SDS011;38339;53.234;6.578;2022-09-30T09:30:22;7.30;;;5.45;;
52412;SDS011;38339;53.234;6.578;2022-09-30T09:32:53;8.48;;;5.95;;
52412;SDS011;38339;53.234;6.578;2022-09-30T09:35:35;8.30;;;5.82;;
52412;SDS011;38339;53.234;6.578;2022-09-30T09:46:48;7.32;;;5.22;;
52412;SDS011;38339;53.234;6.578;2022-09-30T09:54:46;7.10;;;5.28;;
52412;SDS011;38339;53.234;6.578;2022-09-30T09:57:21;10.43;;;6.07;;
52412;SDS011;38339;53.234;6.578;2022-09-30T10:02:31;8.13;;;6.22;;
52412;SDS011;38339;53.234;6.578;2022-09-30T10:04:57;9.57;;;5.97;;
52412;SDS011;38339;53.234;6.578;2022-09-30T10:07:28;10.38;;;6.13;;
52412;SDS011;38339;53.234;6.578;2022-09-30T10:15:20;5.75;;;4.88;;
52412;SDS011;38339;53.234;6.578;2022-09-30T10:17:54;6.45;;;4.57;;
52412;SDS011;38339;53.234;6.578;2022-09-30T10:20:32;4.80;;;3.97;;
52412;SDS011;38339;53.234;6.578;2022-09-30T10:23:16;6.03;;;4.95;;
52412;SDS011;38339;53.234;6.578;2022-09-30T10:26:44;5.93;;;4.03;;
52412;SDS011;38339;53.234;6.578;2022-09-30T10:28:52;4.93;;;4.00;;
52412;SDS011;38339;53.234;6.578;2022-09-30T10:31:29;5.68;;;3.97;;
52412;SDS011;38339;53.234;6.578;2022-09-30T10:36:35;6.05;;;4.30;;
52412;SDS011;38339;53.234;6.578;2022-09-30T10:39:06;5.95;;;4.72;;
52412;SDS011;38339;53.234;6.578;2022-09-30T10:41:32;6.13;;;4.90;;
52412;SDS011;38339;53.234;6.578;2022-09-30T10:44:03;7.82;;;4.70;;
52412;SDS011;38339;53.234;6.578;2022-09-30T10:46:32;5.95;;;4.53;;
52412;SDS011;38339;53.234;6.578;2022-09-30T10:49:09;5.50;;;4.57;;
52412;SDS011;38339;53.234;6.578;2022-09-30T10:51:44;5.55;;;4.90;;
52412;SDS011;38339;53.234;6.578;2022-09-30T10:54:10;13.82;;;6.03;;
52412;SDS011;38339;53.234;6.578;2022-09-30T10:57:54;9.15;;;6.53;;
52412;SDS011;38339;53.234;6.578;2022-09-30T11:00:06;8.38;;;6.95;;
52412;SDS011;38339;53.234;6.578;2022-09-30T11:02:53;14.77;;;6.82;;
52412;SDS011;38339;53.234;6.578;2022-09-30T11:05:41;9.65;;;7.15;;
52412;SDS011;38339;53.234;6.578;2022-09-30T11:08:17;8.30;;;5.93;;
52412;SDS011;38339;53.234;6.578;2022-09-30T11:11:12;10.30;;;5.95;;
52412;SDS011;38339;53.234;6.578;2022-09-30T11:13:49;9.13;;;5.18;;
52412;SDS011;38339;53.234;6.578;2022-09-30T11:17:22;6.57;;;3.90;;
52412;SDS011;38339;53.234;6.578;2022-09-30T11:19:45;6.30;;;3.67;;
52412;SDS011;38339;53.234;6.578;2022-09-30T11:22:31;4.13;;;3.10;;
52412;SDS011;38339;53.234;6.578;2022-09-30T11:25:21;4.97;;;2.92;;
52412;SDS011;38339;53.234;6.578;2022-09-30T11:41:27;3.15;;;2.38;;
52412;SDS011;38339;53.234;6.578;2022-09-30T11:58:00;2.30;;;1.65;;
52412;SDS011;38339;53.234;6.578;2022-09-30T12:00:29;4.50;;;1.80;;
52412;SDS011;38339;53.234;6.578;2022-09-30T12:03:10;2.90;;;2.00;;
52412;SDS011;38339;53.234;6.578;2022-09-30T12:05:47;6.07;;;2.50;;
52412;SDS011;38339;53.234;6.578;2022-09-30T12:08:20;5.80;;;2.25;;
52412;SDS011;38339;53.234;6.578;2022-09-30T12:13:30;2.40;;;2.00;;
52412;SDS011;38339;53.234;6.578;2022-09-30T12:16:03;8.10;;;2.30;;
52412;SDS011;38339;53.234;6.578;2022-09-30T12:18:40;5.45;;;2.30;;
52412;SDS011;38339;53.234;6.578;2022-09-30T12:23:46;3.22;;;1.63;;
52412;SDS011;38339;53.234;6.578;2022-09-30T12:26:18;4.03;;;1.67;;
52412;SDS011;38339;53.234;6.578;2022-09-30T12:31:50;2.50;;;1.90;;
52412;SDS011;38339;53.234;6.578;2022-09-30T12:43:40;3.15;;;2.00;;
52412;SDS011;38339;53.234;6.578;2022-09-30T12:49:04;3.20;;;1.90;;
52412;SDS011;38339;53.234;6.578;2022-09-30T12:51:42;3.33;;;1.95;;
52412;SDS011;38339;53.234;6.578;2022-09-30T12:54:13;4.28;;;1.83;;
52412;SDS011;38339;53.234;6.578;2022-09-30T12:56:43;3.25;;;1.88;;
52412;SDS011;38339;53.234;6.578;2022-09-30T12:59:13;3.50;;;1.83;;
52412;SDS011;38339;53.234;6.578;2022-09-30T13:01:41;3.10;;;1.70;;
52412;SDS011;38339;53.234;6.578;2022-09-30T13:27:33;3.58;;;1.83;;
52412;SDS011;38339;53.234;6.578;2022-09-30T13:29:59;5.13;;;2.08;;
52412;SDS011;38339;53.234;6.578;2022-09-30T13:32:30;2.72;;;1.77;;
52412;SDS011;38339;53.234;6.578;2022-09-30T13:35:11;4.78;;;2.25;;
52412;SDS011;38339;53.234;6.578;2022-09-30T13:43:16;5.90;;;3.97;;
52412;SDS011;38339;53.234;6.578;2022-09-30T13:45:46;4.45;;;2.40;;
52412;SDS011;38339;53.234;6.578;2022-09-30T13:48:15;7.93;;;2.30;;
52412;SDS011;38339;53.234;6.578;2022-09-30T13:50:49;4.18;;;3.08;;
52412;SDS011;38339;53.234;6.578;2022-09-30T13:53:31;4.75;;;2.30;;
52412;SDS011;38339;53.234;6.578;2022-09-30T13:59:06;8.98;;;2.90;;
52412;SDS011;38339;53.234;6.578;2022-09-30T14:21:53;18.52;;;4.13;;
52412;SDS011;38339;53.234;6.578;2022-09-30T14:24:22;9.70;;;3.58;;
52412;SDS011;38339;53.234;6.578;2022-09-30T14:32:28;3.88;;;3.03;;
52412;SDS011;38339;53.234;6.578;2022-09-30T14:34:57;5.00;;;3.10;;
52412;SDS011;38339;53.234;6.578;2022-09-30T14:37:31;5.68;;;3.15;;
52412;SDS011;38339;53.234;6.578;2022-09-30T14:40:23;5.85;;;3.80;;
52412;SDS011;38339;53.234;6.578;2022-09-30T14:42:54;4.80;;;4.20;;
52412;SDS011;38339;53.234;6.578;2022-09-30T14:45:28;7.32;;;4.60;;
52412;SDS011;38339;53.234;6.578;2022-09-30T14:48:01;14.63;;;4.72;;
52412;SDS011;38339;53.234;6.578;2022-09-30T14:50:35;4.82;;;4.00;;
52412;SDS011;38339;53.234;6.578;2022-09-30T14:53:22;8.95;;;4.28;;
52412;SDS011;38339;53.234;6.578;2022-09-30T14:55:49;7.15;;;4.57;;
52412;SDS011;38339;53.234;6.578;2022-09-30T15:01:28;4.97;;;4.10;;
52412;SDS011;38339;53.234;6.578;2022-09-30T15:03:42;7.35;;;3.97;;
52412;SDS011;38339;53.234;6.578;2022-09-30T15:06:17;7.13;;;4.20;;
52412;SDS011;38339;53.234;6.578;2022-09-30T15:08:48;5.03;;;3.75;;
52412;SDS011;38339;53.234;6.578;2022-09-30T15:11:16;5.57;;;3.90;;
52412;SDS011;38339;53.234;6.578;2022-09-30T15:13:56;4.80;;;3.35;;
52412;SDS011;38339;53.234;6.578;2022-09-30T15:16:24;5.82;;;3.58;;
52412;SDS011;38339;53.234;6.578;2022-09-30T15:18:52;6.57;;;3.17;;
52412;SDS011;38339;53.234;6.578;2022-09-30T15:21:18;3.85;;;2.95;;
52412;SDS011;38339;53.234;6.578;2022-09-30T15:23:56;3.97;;;3.10;;
52412;SDS011;38339;53.234;6.578;2022-09-30T15:26:24;6.43;;;3.10;;
52412;SDS011;38339;53.234;6.578;2022-09-30T15:28:51;6.13;;;3.50;;
52412;SDS011;38339;53.234;6.578;2022-09-30T15:31:25;6.45;;;4.03;;
52412;SDS011;38339;53.234;6.578;2022-09-30T15:36:33;6.82;;;3.67;;
52412;SDS011;38339;53.234;6.578;2022-09-30T15:39:00;7.10;;;3.95;;
52412;SDS011;38339;53.234;6.578;2022-09-30T15:41:27;5.13;;;3.40;;
52412;SDS011;38339;53.234;6.578;2022-09-30T15:43:53;4.32;;;3.33;;
52412;SDS011;38339;53.234;6.578;2022-09-30T15:48:57;5.78;;;3.22;;
52412;SDS011;38339;53.234;6.578;2022-09-30T15:51:29;4.30;;;3.30;;
52412;SDS011;38339;53.234;6.578;2022-09-30T15:53:57;4.90;;;3.00;;
52412;SDS011;38339;53.234;6.578;2022-09-30T16:04:07;6.07;;;3.67;;
52412;SDS011;38339;53.234;6.578;2022-09-30T16:09:07;6.80;;;4.30;;
52412;SDS011;38339;53.234;6.578;2022-09-30T16:11:43;5.88;;;4.70;;
52412;SDS011;38339;53.234;6.578;2022-09-30T16:14:19;5.82;;;3.83;;
52412;SDS011;38339;53.234;6.578;2022-09-30T16:16:47;8.40;;;4.35;;
52412;SDS011;38339;53.234;6.578;2022-09-30T16:19:16;5.63;;;3.90;;
52412;SDS011;38339;53.234;6.578;2022-09-30T16:21:47;6.50;;;4.10;;
52412;SDS011;38339;53.234;6.578;2022-09-30T16:26:49;6.95;;;5.05;;
52412;SDS011;38339;53.234;6.578;2022-09-30T16:29:16;6.30;;;4.28;;
52412;SDS011;38339;53.234;6.578;2022-09-30T16:31:44;6.20;;;4.20;;
52412;SDS011;38339;53.234;6.578;2022-09-30T16:34:17;5.82;;;4.20;;
52412;SDS011;38339;53.234;6.578;2022-09-30T16:36:46;7.32;;;4.18;;
52412;SDS011;38339;53.234;6.578;2022-09-30T16:39:13;5.50;;;4.35;;
52412;SDS011;38339;53.234;6.578;2022-09-30T16:41:40;5.32;;;4.25;;
52412;SDS011;38339;53.234;6.578;2022-09-30T16:44:07;6.00;;;4.18;;
52412;SDS011;38339;53.234;6.578;2022-09-30T16:46:33;4.68;;;3.90;;
52412;SDS011;38339;53.234;6.578;2022-09-30T16:48:59;5.93;;;4.00;;
52412;SDS011;38339;53.234;6.578;2022-09-30T16:51:39;5.70;;;3.83;;
52412;SDS011;38339;53.234;6.578;2022-09-30T16:54:04;7.47;;;4.35;;
52412;SDS011;38339;53.234;6.578;2022-09-30T16:56:30;5.50;;;4.38;;
52412;SDS011;38339;53.234;6.578;2022-09-30T16:58:56;5.38;;;3.97;;
52412;SDS011;38339;53.234;6.578;2022-09-30T17:01:22;6.45;;;4.43;;
52412;SDS011;38339;53.234;6.578;2022-09-30T17:03:49;10.40;;;5.30;;
52412;SDS011;38339;53.234;6.578;2022-09-30T17:06:17;7.78;;;4.55;;
52412;SDS011;38339;53.234;6.578;2022-09-30T17:08:48;5.93;;;4.82;;
52412;SDS011;38339;53.234;6.578;2022-09-30T17:11:13;6.75;;;4.60;;
52412;SDS011;38339;53.234;6.578;2022-09-30T17:13:39;5.88;;;4.85;;
52412;SDS011;38339;53.234;6.578;2022-09-30T17:16:05;7.18;;;5.25;;
52412;SDS011;38339;53.234;6.578;2022-09-30T17:18:31;6.45;;;4.93;;
52412;SDS011;38339;53.234;6.578;2022-09-30T17:20:57;6.22;;;4.90;;
52412;SDS011;38339;53.234;6.578;2022-09-30T17:23:24;7.25;;;5.30;;
52412;SDS011;38339;53.234;6.578;2022-09-30T17:25:50;5.90;;;4.90;;
52412;SDS011;38339;53.234;6.578;2022-09-30T17:28:16;7.75;;;5.22;;
52412;SDS011;38339;53.234;6.578;2022-09-30T17:30:43;7.78;;;5.35;;
52412;SDS011;38339;53.234;6.578;2022-09-30T17:33:12;7.78;;;5.93;;
52412;SDS011;38339;53.234;6.578;2022-09-30T17:35:38;7.13;;;5.93;;
52412;SDS011;38339;53.234;6.578;2022-09-30T17:38:08;6.82;;;6.05;;
52412;SDS011;38339;53.234;6.578;2022-09-30T17:40:35;7.78;;;6.18;;
52412;SDS011;38339;53.234;6.578;2022-09-30T17:43:20;10.80;;;6.88;;
52412;SDS011;38339;53.234;6.578;2022-09-30T17:45:46;8.05;;;6.18;;
52412;SDS011;38339;53.234;6.578;2022-09-30T17:48:15;9.35;;;6.65;;
52412;SDS011;38339;53.234;6.578;2022-09-30T17:50:43;8.25;;;5.93;;
52412;SDS011;38339;53.234;6.578;2022-09-30T17:53:10;7.53;;;6.40;;
52412;SDS011;38339;53.234;6.578;2022-09-30T17:55:41;9.60;;;6.30;;
52412;SDS011;38339;53.234;6.578;2022-09-30T17:58:08;9.38;;;6.82;;
52412;SDS011;38339;53.234;6.578;2022-09-30T18:00:36;8.77;;;6.70;;
52412;SDS011;38339;53.234;6.578;2022-09-30T18:03:02;9.45;;;6.65;;
52412;SDS011;38339;53.234;6.578;2022-09-30T18:05:29;8.30;;;6.13;;
52412;SDS011;38339;53.234;6.578;2022-09-30T18:07:57;12.52;;;7.72;;
52412;SDS011;38339;53.234;6.578;2022-09-30T18:10:23;9.68;;;7.03;;
52412;SDS011;38339;53.234;6.578;2022-09-30T18:12:50;8.98;;;7.45;;
52412;SDS011;38339;53.234;6.578;2022-09-30T18:15:17;8.75;;;7.18;;
52412;SDS011;38339;53.234;6.578;2022-09-30T18:17:44;8.63;;;6.80;;
52412;SDS011;38339;53.234;6.578;2022-09-30T18:20:10;9.10;;;7.30;;
52412;SDS011;38339;53.234;6.578;2022-09-30T18:22:37;10.30;;;7.28;;
52412;SDS011;38339;53.234;6.578;2022-09-30T18:25:02;10.40;;;7.10;;
52412;SDS011;38339;53.234;6.578;2022-09-30T18:27:44;8.13;;;6.95;;
52412;SDS011;38339;53.234;6.578;2022-09-30T18:30:21;9.63;;;6.90;;
52412;SDS011;38339;53.234;6.578;2022-09-30T18:32:48;9.68;;;6.93;;
52412;SDS011;38339;53.234;6.578;2022-09-30T18:35:16;7.70;;;6.90;;
52412;SDS011;38339;53.234;6.578;2022-09-30T18:37:45;10.55;;;6.90;;
52412;SDS011;38339;53.234;6.578;2022-09-30T18:40:13;9.52;;;7.55;;
52412;SDS011;38339;53.234;6.578;2022-09-30T18:42:43;9.65;;;7.05;;
52412;SDS011;38339;53.234;6.578;2022-09-30T18:45:10;8.95;;;6.50;;
52412;SDS011;38339;53.234;6.578;2022-09-30T18:47:42;8.82;;;6.72;;
52412;SDS011;38339;53.234;6.578;2022-09-30T18:50:12;7.63;;;6.35;;
52412;SDS011;38339;53.234;6.578;2022-09-30T18:52:39;8.63;;;6.15;;
52412;SDS011;38339;53.234;6.578;2022-09-30T18:55:05;8.82;;;6.60;;
52412;SDS011;38339;53.234;6.578;2022-09-30T18:57:33;7.43;;;6.03;;